Time;durP1;ratioP1;P1;durP2;ratioP2;P2;SDS_P1;SDS_P2;PMS_P1;PMS_P2;Temp;Humidity;BMP_temperature;BMP_pressure;BME280_temperature;BME280_humidity;BME280_pressure;Samples;Min_cycle;Max_cycle;Signal;HPM_P1;HPM_P2
2023/03/31 04:22:39;;;;;;;4.22;2.38;;;;;;;9.54;100.00;99072.91;5089445;28;20828;-63
2023/03/31 04:25:13;;;;;;;9.02;2.40;;;;;;;9.57;100.00;99072.50;5089611;28;20052;-62
2023/03/31 04:27:45;;;;;;;4.97;2.00;;;;;;;9.61;100.00;99081.75;5068986;28;20039;-62
2023/03/31 04:30:21;;;;;;;8.52;2.55;;;;;;;9.67;100.00;99075.66;5069086;28;20041;-63
2023/03/31 04:32:50;;;;;;;4.72;2.10;;;;;;;9.64;100.00;99062.72;5069330;28;20049;-62
2023/03/31 04:35:19;;;;;;;5.78;2.22;;;;;;;9.67;100.00;99049.06;5069030;28;20041;-62
2023/03/31 04:37:49;;;;;;;3.05;2.10;;;;;;;9.69;100.00;99044.34;5068958;28;20378;-62
2023/03/31 04:40:16;;;;;;;3.38;1.92;;;;;;;9.71;100.00;99048.44;5068863;28;20115;-64
2023/03/31 04:42:42;;;;;;;4.72;2.13;;;;;;;9.68;100.00;99058.69;5068999;28;20029;-64
2023/03/31 04:45:09;;;;;;;4.23;2.10;;;;;;;9.66;100.00;99071.34;5068900;28;20440;-62
2023/03/31 04:47:35;;;;;;;8.95;2.70;;;;;;;9.62;100.00;99076.22;5068581;28;20049;-62
2023/03/31 04:50:00;;;;;;;4.63;2.10;;;;;;;9.47;100.00;99078.19;5068775;28;20036;-63
2023/03/31 04:52:25;;;;;;;4.60;2.35;;;;;;;9.40;100.00;99080.78;5068838;28;20028;-62
2023/03/31 04:54:51;;;;;;;7.45;3.00;;;;;;;9.50;100.00;99085.75;5068707;28;20068;-64
2023/03/31 04:57:16;;;;;;;3.63;2.53;;;;;;;9.49;100.00;99092.91;5068145;28;20044;-63
2023/03/31 04:59:41;;;;;;;6.90;3.00;;;;;;;9.50;100.00;99105.19;5068670;28;20579;-62
2023/03/31 05:02:07;;;;;;;4.57;2.88;;;;;;;9.54;100.00;99112.78;5068484;28;20135;-63
2023/03/31 05:04:32;;;;;;;4.50;2.75;;;;;;;9.59;100.00;99113.84;5068549;28;20048;-63
2023/03/31 05:06:58;;;;;;;5.18;3.10;;;;;;;9.59;100.00;99111.19;5068203;28;20036;-65
2023/03/31 05:09:24;;;;;;;10.57;4.78;;;;;;;9.61;100.00;99109.16;5068416;28;20048;-63
2023/03/31 05:11:49;;;;;;;8.75;4.00;;;;;;;9.65;100.00;99097.13;5068611;28;20089;-63
2023/03/31 05:14:14;;;;;;;4.70;3.15;;;;;;;9.60;100.00;99096.06;5068419;28;20094;-62
2023/03/31 05:16:40;;;;;;;7.40;3.20;;;;;;;9.61;100.00;99082.56;5068193;28;20166;-63
2023/03/31 05:19:06;;;;;;;9.02;3.10;;;;;;;9.59;100.00;99062.53;5068020;28;20515;-63
2023/03/31 05:21:31;;;;;;;10.52;3.50;;;;;;;9.61;100.00;99049.84;5067943;28;20041;-62
2023/03/31 05:23:57;;;;;;;10.23;3.83;;;;;;;9.69;100.00;99034.53;5068030;28;20036;-62
2023/03/31 05:26:24;;;;;;;9.18;3.47;;;;;;;9.73;100.00;99019.03;5068006;28;20071;-62
2023/03/31 05:28:53;;;;;;;8.13;3.35;;;;;;;9.65;100.00;99017.34;5067752;28;20099;-62
2023/03/31 05:31:19;;;;;;;10.15;3.42;;;;;;;9.66;100.00;99007.53;5068025;28;20425;-61
2023/03/31 05:33:44;;;;;;;6.78;3.05;;;;;;;9.62;100.00;99007.09;5055608;28;20045;-62
2023/03/31 05:36:12;;;;;;;7.30;3.38;;;;;;;9.56;100.00;99013.19;5054613;28;20123;-63
2023/03/31 05:38:39;;;;;;;6.03;3.80;;;;;;;9.59;100.00;99025.31;5054357;28;20041;-63
2023/03/31 05:41:06;;;;;;;11.35;3.95;;;;;;;9.56;100.00;99028.34;5054531;28;20025;-62
2023/03/31 05:43:31;;;;;;;11.68;3.67;;;;;;;9.55;100.00;99021.38;5054567;28;20041;-63
2023/03/31 05:45:57;;;;;;;6.85;3.60;;;;;;;9.51;100.00;99003.16;5054482;28;20074;-62
2023/03/31 05:48:22;;;;;;;4.55;3.67;;;;;;;9.54;100.00;98996.63;5054269;28;20064;-63
2023/03/31 05:50:48;;;;;;;5.07;3.42;;;;;;;9.59;100.00;98978.25;5054334;28;20436;-63
2023/03/31 05:53:13;;;;;;;7.45;3.70;;;;;;;9.66;100.00;98975.63;5054366;28;20044;-63
2023/03/31 05:55:39;;;;;;;11.27;3.65;;;;;;;9.62;100.00;98974.38;5054312;28;20029;-63
2023/03/31 05:58:05;;;;;;;13.02;4.72;;;;;;;9.67;100.00;98977.28;5054003;28;20564;-62
2023/03/31 06:00:31;;;;;;;9.75;4.40;;;;;;;9.68;100.00;98973.59;5054185;28;20072;-62
2023/03/31 06:02:57;;;;;;;16.00;3.85;;;;;;;9.59;100.00;98938.38;5054004;28;20068;-62
2023/03/31 06:05:25;;;;;;;7.75;4.90;;;;;;;9.71;100.00;98959.88;5054124;28;20094;-62
2023/03/31 06:07:52;;;;;;;8.40;4.53;;;;;;;9.66;100.00;98949.88;5053840;28;20119;-63
2023/03/31 06:10:18;;;;;;;8.38;4.40;;;;;;;9.68;100.00;98954.97;5054052;28;20112;-62
2023/03/31 06:12:44;;;;;;;7.15;3.97;;;;;;;9.69;100.00;98943.31;5054158;28;20063;-63
2023/03/31 06:15:09;;;;;;;8.02;4.28;;;;;;;9.75;100.00;98927.38;5053927;28;20474;-63
2023/03/31 06:17:35;;;;;;;11.25;4.80;;;;;;;9.87;100.00;98929.47;5053690;28;20068;-62
2023/03/31 06:20:00;;;;;;;6.90;4.28;;;;;;;9.94;100.00;98915.16;5053890;28;20032;-62
2023/03/31 06:22:26;;;;;;;6.00;3.60;;;;;;;10.11;100.00;98928.94;5053747;28;20589;-62
2023/03/31 06:24:51;;;;;;;9.27;3.88;;;;;;;10.17;100.00;98922.78;5053977;28;20494;-63
2023/03/31 06:27:17;;;;;;;8.52;5.25;;;;;;;10.23;100.00;98924.66;5053574;28;20070;-63
2023/03/31 06:29:42;;;;;;;14.65;4.65;;;;;;;10.29;100.00;98913.19;5053762;28;20039;-62
2023/03/31 06:32:07;;;;;;;10.85;4.68;;;;;;;10.25;100.00;98890.69;5053565;28;20500;-62
2023/03/31 06:34:33;;;;;;;15.13;5.00;;;;;;;10.29;100.00;98899.06;5053571;28;20043;-62
2023/03/31 06:36:58;;;;;;;13.95;4.88;;;;;;;10.33;100.00;98898.47;5053247;28;20048;-63
2023/03/31 06:39:23;;;;;;;9.25;4.88;;;;;;;10.37;100.00;98901.56;5053526;28;20049;-63
2023/03/31 06:41:49;;;;;;;9.18;4.78;;;;;;;10.43;100.00;98911.38;5052395;28;20044;-62
2023/03/31 06:44:24;;;;;;;10.15;4.43;;;;;;;10.48;100.00;98900.91;5051097;28;20036;-63
2023/03/31 06:46:49;;;;;;;11.10;4.57;;;;;;;10.45;100.00;98912.00;5053149;28;20048;-62
2023/03/31 06:49:15;;;;;;;10.73;5.00;;;;;;;10.49;100.00;98902.56;5053207;28;20029;-61
2023/03/31 06:51:40;;;;;;;16.05;4.78;;;;;;;10.55;100.00;98892.94;5053136;28;20041;-64
2023/03/31 06:54:06;;;;;;;10.55;4.72;;;;;;;10.50;100.00;98866.94;5053263;28;20033;-64
2023/03/31 06:56:31;;;;;;;9.10;4.57;;;;;;;10.49;100.00;98830.66;5053159;28;20033;-62
2023/03/31 06:58:56;;;;;;;12.65;4.10;;;;;;;10.63;100.00;98886.56;5052786;28;20045;-64
2023/03/31 07:01:22;;;;;;;13.98;4.80;;;;;;;10.67;100.00;98879.81;5053039;28;20045;-64
2023/03/31 07:03:47;;;;;;;10.07;4.72;;;;;;;10.80;100.00;98887.78;5052896;28;20037;-64
2023/03/31 07:06:13;;;;;;;8.02;4.03;;;;;;;10.91;100.00;98881.00;5052889;28;20053;-66
2023/03/31 07:08:38;;;;;;;8.23;5.22;;;;;;;11.00;100.00;98887.75;5052611;28;20469;-66
2023/03/31 07:11:04;;;;;;;8.70;3.60;;;;;;;11.06;100.00;98890.41;5052825;28;20033;-65
2023/03/31 07:13:29;;;;;;;5.53;3.42;;;;;;;11.19;100.00;98902.06;5052636;28;20036;-66
2023/03/31 07:15:55;;;;;;;5.22;2.97;;;;;;;11.30;100.00;98899.56;5052624;28;20065;-65
2023/03/31 07:18:24;;;;;;;8.70;3.35;;;;;;;11.36;100.00;98889.91;5052390;28;20049;-65
2023/03/31 07:20:50;;;;;;;4.10;2.17;;;;;;;11.46;100.00;98905.44;5052508;28;20386;-65
2023/03/31 07:23:16;;;;;;;4.25;2.50;;;;;;;11.72;100.00;98916.00;5052682;28;20081;-66
2023/03/31 07:25:42;;;;;;;6.43;2.55;;;;;;;11.91;100.00;98904.44;5052548;28;20052;-65
2023/03/31 07:28:07;;;;;;;4.28;2.17;;;;;;;12.12;97.75;98900.59;5052304;28;20401;-66
2023/03/31 07:30:33;;;;;;;4.28;1.73;;;;;;;12.27;93.25;98904.84;5052467;28;20478;-66
2023/03/31 07:33:01;;;;;;;2.20;1.33;;;;;;;12.48;92.60;98905.28;5052439;28;20037;-66
2023/03/31 07:35:26;;;;;;;3.10;1.60;;;;;;;12.66;92.13;98904.50;5052327;28;20072;-65
2023/03/31 07:37:52;;;;;;;6.22;1.58;;;;;;;12.80;87.99;98912.41;5052259;28;20120;-66
2023/03/31 07:40:26;;;;;;;2.60;1.55;;;;;;;12.85;88.08;98913.38;5052391;28;20029;-66
2023/03/31 07:42:52;;;;;;;3.72;1.75;;;;;;;12.64;86.80;98911.09;5052410;28;20037;-66
2023/03/31 07:45:19;;;;;;;4.10;1.13;;;;;;;12.78;84.97;98909.97;5050949;28;20044;-66
2023/03/31 07:47:46;;;;;;;5.05;1.80;;;;;;;12.70;87.38;98918.22;5051798;28;20036;-65
2023/03/31 07:50:14;;;;;;;4.32;1.02;;;;;;;12.59;86.01;98921.63;5052197;28;20478;-65
2023/03/31 07:52:40;;;;;;;;;;;;;;;12.46;89.12;98917.22;5051333;28;20017;-65
2023/03/31 07:55:06;;;;;;;6.55;1.27;;;;;;;12.42;89.36;98908.00;5051911;28;20431;-66
2023/03/31 07:57:32;;;;;;;3.92;1.20;;;;;;;12.40;89.01;98915.41;5051804;28;20040;-65
2023/03/31 07:59:57;;;;;;;4.15;1.35;;;;;;;12.32;87.34;98902.31;5052111;28;20037;-65
2023/03/31 08:02:23;;;;;;;4.38;1.40;;;;;;;12.29;86.11;98910.75;5050622;28;20409;-66
2023/03/31 08:04:48;;;;;;;2.70;1.27;;;;;;;12.40;85.22;98900.22;5052036;28;20040;-66
2023/03/31 08:07:15;;;;;;;7.95;1.52;;;;;;;12.46;85.17;98910.03;5051829;28;20067;-66
2023/03/31 08:09:43;;;;;;;2.17;1.30;;;;;;;12.63;84.36;98893.44;5052118;28;20036;-66
2023/03/31 08:12:08;;;;;;;;;;;;;;;12.78;80.94;98896.59;5052310;28;20029;-66
2023/03/31 08:14:34;;;;;;;3.50;1.52;;;;;;;12.96;80.47;98895.78;5051897;28;19916;-66
2023/03/31 08:16:59;;;;;;;3.67;1.20;;;;;;;13.01;80.62;98894.09;5051563;28;20537;-65
2023/03/31 08:19:28;;;;;;;1.63;1.20;;;;;;;12.89;85.84;98892.38;5051756;28;20152;-65
2023/03/31 08:21:53;;;;;;;1.88;1.08;;;;;;;12.51;90.78;98896.00;5051778;28;20155;-65
2023/03/31 08:24:18;;;;;;;2.97;1.40;;;;;;;12.41;90.02;98893.00;5051925;28;20045;-65
2023/03/31 08:26:44;;;;;;;2.17;1.30;;;;;;;12.27;92.78;98907.50;5051576;28;20068;-65
2023/03/31 08:29:09;;;;;;;3.00;1.33;;;;;;;12.15;95.32;98896.69;5050365;28;20056;-67
2023/03/31 08:31:35;;;;;;;2.92;1.50;;;;;;;12.21;93.85;98885.97;5051582;28;20041;-67
2023/03/31 08:34:01;;;;;;;3.65;1.00;;;;;;;12.36;92.02;98874.97;5051665;28;20044;-67
2023/03/31 08:36:27;;;;;;;3.40;1.42;;;;;;;12.50;92.12;98876.47;5051616;28;20037;-65
2023/03/31 08:38:53;;;;;;;2.83;1.30;;;;;;;12.82;87.87;98891.63;5051330;28;20033;-65
2023/03/31 08:41:43;;;;;;;5.35;1.73;;;;;;;13.19;85.70;98885.28;5051673;28;20517;-67
2023/03/31 08:44:58;;;;;;;2.42;1.08;;;;;;;13.46;87.37;98885.00;5051566;28;20029;-65
2023/03/31 08:47:28;;;;;;;5.47;1.13;;;;;;;13.75;80.53;98881.50;5043035;28;20717;-65
2023/03/31 08:49:58;;;;;;;1.92;1.00;;;;;;;13.90;82.87;98882.97;5051582;28;20063;-65
2023/03/31 08:52:30;;;;;;;2.03;0.88;;;;;;;13.99;80.11;98877.06;5051521;28;20502;-65
2023/03/31 08:55:00;;;;;;;3.10;1.60;;;;;;;14.30;79.43;98880.53;5051552;28;20044;-66
2023/03/31 08:57:35;;;;;;;5.18;1.52;;;;;;;14.37;76.57;98890.06;5051131;28;20041;-65
2023/03/31 09:00:05;;;;;;;2.20;0.90;;;;;;;14.40;75.44;98884.25;5051362;28;20496;-65
2023/03/31 09:02:55;;;;;;;2.05;1.13;;;;;;;14.24;80.61;98884.13;5051492;28;20060;-65
2023/03/31 09:05:39;;;;;;;1.60;1.02;;;;;;;14.33;78.68;98877.38;5051389;28;20036;-64
2023/03/31 09:08:30;;;;;;;2.75;1.55;;;;;;;14.28;75.45;98883.44;5052771;28;20029;-65
2023/03/31 09:11:09;;;;;;;3.97;1.63;;;;;;;14.30;76.01;98859.91;5055005;28;20525;-65
2023/03/31 09:13:38;;;;;;;1.25;0.82;;;;;;;14.58;75.06;98871.84;5055185;28;20528;-65
2023/03/31 09:16:26;;;;;;;1.23;1.00;;;;;;;14.91;75.46;98858.66;5054895;28;20054;-65
2023/03/31 09:18:58;;;;;;;2.03;1.00;;;;;;;15.32;71.00;98850.66;5054689;28;20037;-65
2023/03/31 09:21:40;;;;;;;6.13;1.30;;;;;;;15.48;70.59;98853.41;5053807;28;20077;-66
2023/03/31 09:24:22;;;;;;;3.33;1.00;;;;;;;15.18;68.13;98856.28;5054993;28;20043;-66
2023/03/31 09:26:55;;;;;;;5.93;1.05;;;;;;;15.53;68.72;98854.56;5054597;28;20029;-65
2023/03/31 09:29:26;;;;;;;2.75;1.20;;;;;;;15.67;69.18;98839.84;5054706;28;20052;-65
2023/03/31 09:31:52;;;;;;;1.95;1.00;;;;;;;15.53;69.93;98855.38;5054738;28;20069;-66
2023/03/31 09:34:26;;;;;;;2.70;1.23;;;;;;;15.22;68.28;98856.63;5054851;28;20055;-65
2023/03/31 09:36:51;;;;;;;4.32;1.38;;;;;;;14.89;67.28;98833.97;5054481;28;20287;-65
2023/03/31 09:39:17;;;;;;;1.23;1.02;;;;;;;14.63;71.78;98842.50;5054497;28;20520;-66
2023/03/31 09:41:48;;;;;;;4.13;1.20;;;;;;;14.31;70.69;98840.09;5054670;28;20029;-64
2023/03/31 09:44:45;;;;;;;1.42;0.73;;;;;;;14.71;70.18;98830.59;5054460;28;20052;-64
2023/03/31 09:47:19;;;;;;;4.05;1.23;;;;;;;15.03;68.12;98828.34;5053843;28;20095;-64
2023/03/31 09:49:46;;;;;;;3.42;1.50;;;;;;;15.32;67.56;98803.22;5054637;28;20041;-65
2023/03/31 09:52:24;;;;;;;1.50;0.70;;;;;;;15.66;68.54;98806.00;5054360;28;20052;-65
2023/03/31 09:54:51;;;;;;;3.00;1.17;;;;;;;16.15;68.32;98811.66;5054396;28;20044;-65
2023/03/31 09:57:32;;;;;;;3.42;1.13;;;;;;;16.75;67.14;98806.41;5053948;28;20032;-65
2023/03/31 10:00:14;;;;;;;1.75;1.10;;;;;;;16.42;67.34;98809.94;5054252;28;20041;-63
2023/03/31 10:02:46;;;;;;;4.15;1.60;;;;;;;16.04;66.08;98808.03;5054357;28;20112;-63
2023/03/31 10:05:58;;;;;;;3.30;1.08;;;;;;;16.28;64.89;98814.03;5054080;28;20109;-63
2023/03/31 10:08:28;;;;;;;1.75;1.08;;;;;;;16.94;61.58;98800.75;5038571;28;20055;-64
2023/03/31 10:11:10;;;;;;;4.75;1.13;;;;;;;16.79;61.45;98814.81;5053965;28;20135;-64
2023/03/31 10:13:46;;;;;;;3.70;1.02;;;;;;;16.45;61.29;98792.53;5053900;28;20090;-64
2023/03/31 10:16:26;;;;;;;5.18;1.13;;;;;;;16.35;62.44;98808.50;5053570;28;20043;-64
2023/03/31 10:18:52;;;;;;;0.82;0.70;;;;;;;16.64;62.64;98793.06;5053751;28;20119;-63
2023/03/31 10:21:24;;;;;;;3.30;1.42;;;;;;;16.81;59.82;98801.94;5053866;28;20071;-63
2023/03/31 10:23:50;;;;;;;1.88;0.70;;;;;;;16.89;60.23;98798.81;5053923;28;20124;-63
2023/03/31 10:26:36;;;;;;;4.43;1.35;;;;;;;16.86;56.82;98793.94;5053692;28;20170;-63
2023/03/31 10:29:11;;;;;;;4.93;1.00;;;;;;;16.28;57.13;98784.47;5053428;28;20144;-63
2023/03/31 10:31:37;;;;;;;3.00;1.08;;;;;;;16.75;59.29;98776.84;5053691;28;20041;-61
2023/03/31 10:34:11;;;;;;;4.93;1.20;;;;;;;17.12;55.96;98748.53;5053582;28;20114;-62
2023/03/31 10:36:37;;;;;;;2.50;1.02;;;;;;;17.32;53.36;98754.13;5053445;28;20072;-63
2023/03/31 10:39:06;;;;;;;3.35;1.13;;;;;;;17.36;53.58;98752.56;5053229;28;20136;-62
2023/03/31 10:41:32;;;;;;;4.88;1.42;;;;;;;17.27;54.70;98767.50;5053518;28;20040;-62
2023/03/31 10:44:01;;;;;;;3.35;0.90;;;;;;;16.83;55.41;98781.00;5053429;28;20046;-63
2023/03/31 10:46:47;;;;;;;4.22;1.33;;;;;;;15.93;58.47;98841.94;5052086;28;20041;-63
2023/03/31 10:49:21;;;;;;;3.33;1.17;;;;;;;13.87;82.57;98832.56;5053005;28;20052;-63
2023/03/31 10:51:51;;;;;;;3.30;0.75;;;;;;;13.09;82.07;98842.19;5053260;28;20155;-64
2023/03/31 10:54:17;;;;;;;0.65;0.35;;;;;;;12.43;82.41;98840.19;5053222;28;20082;-64
2023/03/31 10:56:45;;;;;;;0.98;0.35;;;;;;;12.26;81.80;98845.28;5053012;28;20045;-64
2023/03/31 10:59:21;;;;;;;3.53;0.73;;;;;;;12.16;79.62;98852.94;5053090;28;20445;-64
2023/03/31 11:02:05;;;;;;;3.38;0.57;;;;;;;11.97;78.52;98872.59;5054720;28;20119;-63
2023/03/31 11:04:40;;;;;;;0.85;0.50;;;;;;;12.01;78.86;98863.13;5051750;28;20509;-63
2023/03/31 11:07:51;;;;;;;0.95;0.30;;;;;;;11.90;78.34;98861.97;5052552;28;20056;-64
2023/03/31 11:10:33;;;;;;;0.20;0.20;;;;;;;11.62;77.56;98855.13;4991381;28;20042;-64
2023/03/31 11:13:01;;;;;;;1.27;0.50;;;;;;;11.53;80.74;98840.38;5051631;28;20621;-63
2023/03/31 11:15:44;;;;;;;0.60;0.32;;;;;;;11.34;82.54;98842.09;5052819;28;20159;-64
2023/03/31 11:18:48;;;;;;;0.35;0.20;;;;;;;11.39;82.48;98836.97;5052428;28;20409;-63
2023/03/31 11:21:30;;;;;;;0.22;0.22;;;;;;;11.40;79.30;98829.78;5029465;28;20072;-64
2023/03/31 11:24:01;;;;;;;1.58;0.25;;;;;;;11.56;77.16;98839.97;5052632;28;20037;-64
2023/03/31 11:26:45;;;;;;;2.13;0.35;;;;;;;11.77;77.23;98838.00;5052455;28;20040;-63
2023/03/31 11:29:29;;;;;;;2.35;0.20;;;;;;;11.63;75.57;98851.41;5052366;28;20033;-64
2023/03/31 11:32:25;;;;;;;0.88;0.20;;;;;;;11.68;77.19;98851.59;5052006;28;20041;-64
2023/03/31 11:35:28;;;;;;;0.28;0.17;;;;;;;11.87;77.75;98841.06;5052483;28;20040;-63
2023/03/31 11:38:16;;;;;;;1.10;0.22;;;;;;;12.58;72.34;98810.47;5052183;28;20033;-64
2023/03/31 11:40:47;;;;;;;0.68;0.30;;;;;;;13.93;70.98;98828.97;5048514;28;20031;-63
2023/03/31 11:43:23;;;;;;;0.17;0.10;;;;;;;15.07;66.42;98826.84;5051650;28;20028;-64
2023/03/31 11:45:59;;;;;;;1.33;0.20;;;;;;;15.76;60.38;98816.91;5052246;28;20060;-64
2023/03/31 11:48:36;;;;;;;0.47;0.22;;;;;;;16.08;57.17;98814.50;5052003;28;20098;-63
2023/03/31 11:51:08;;;;;;;0.47;0.30;;;;;;;16.38;54.26;98808.00;5052209;28;20037;-61
2023/03/31 11:53:36;;;;;;;0.43;0.17;;;;;;;16.66;53.38;98809.75;5052464;28;20390;-64
2023/03/31 11:56:03;;;;;;;0.63;0.20;;;;;;;17.06;53.39;98810.31;5052040;28;20039;-63
2023/03/31 11:58:34;;;;;;;1.33;0.30;;;;;;;17.58;52.18;98814.41;5051667;28;20041;-63
2023/03/31 12:01:24;;;;;;;2.05;0.57;;;;;;;17.16;51.98;98806.16;5052181;28;20025;-63
2023/03/31 12:04:00;;;;;;;0.50;0.28;;;;;;;16.46;52.98;98811.09;5047961;28;20037;-63
2023/03/31 12:06:30;;;;;;;1.35;0.40;;;;;;;16.02;53.52;98807.44;5052285;28;20072;-63
2023/03/31 12:09:50;;;;;;;0.50;0.40;;;;;;;15.35;55.74;98821.50;5050582;28;20482;-62
2023/03/31 12:12:23;;;;;;;0.60;0.20;;;;;;;14.69;57.83;98824.66;4989698;28;20042;-63
2023/03/31 12:15:05;;;;;;;0.93;0.93;;;;;;;14.35;59.45;98816.38;5041532;28;20056;-63
2023/03/31 12:17:31;;;;;;;0.40;0.20;;;;;;;14.28;61.18;98819.16;5051493;28;20116;-63
2023/03/31 12:19:59;;;;;;;0.40;0.20;;;;;;;14.12;62.67;98801.88;5051933;28;20116;-62
2023/03/31 12:22:28;;;;;;;0.50;0.30;;;;;;;14.08;63.10;98789.19;5051764;28;20041;-63
2023/03/31 12:24:54;;;;;;;0.30;0.10;;;;;;;13.96;62.81;98791.06;5051789;28;20094;-63
2023/03/31 12:27:28;;;;;;;1.08;0.28;;;;;;;13.90;62.87;98798.13;5051468;28;20394;-63
2023/03/31 12:29:58;;;;;;;0.17;0.17;;;;;;;13.98;64.20;98799.66;5051875;28;20041;-63
2023/03/31 12:32:31;;;;;;;0.65;0.40;;;;;;;13.88;64.71;98794.84;5051700;28;20037;-63
2023/03/31 12:34:59;;;;;;;0.85;0.50;;;;;;;13.92;64.68;98795.22;5051773;28;20102;-64
2023/03/31 12:37:54;;;;;;;0.35;0.32;;;;;;;14.26;63.68;98805.16;5051341;28;20077;-63
2023/03/31 12:40:40;;;;;;;0.82;0.45;;;;;;;13.72;66.25;98801.69;5051372;28;20112;-64
2023/03/31 12:43:35;;;;;;;1.00;0.47;;;;;;;13.48;68.88;98798.13;5050319;28;20461;-62
2023/03/31 12:46:39;;;;;;;3.10;0.68;;;;;;;14.30;68.09;98798.31;5055672;28;20040;-63
2023/03/31 12:49:16;;;;;;;0.47;0.20;;;;;;;14.97;63.63;98767.63;5055332;28;20041;-63
2023/03/31 12:52:05;;;;;;;0.47;0.40;;;;;;;15.45;59.64;98778.78;5055538;28;20111;-64
2023/03/31 12:54:55;;;;;;;0.68;0.40;;;;;;;15.92;59.56;98762.44;5055453;28;20036;-64
2023/03/31 12:57:22;;;;;;;0.10;0.10;;;;;;;15.81;60.60;98765.19;5055030;28;20479;-64
2023/03/31 13:00:09;;;;;;;1.45;0.25;;;;;;;14.37;63.23;98758.81;5055513;28;20036;-63
2023/03/31 13:02:35;;;;;;;0.85;0.40;;;;;;;14.27;65.78;98766.63;5055270;28;20494;-63
2023/03/31 13:05:35;;;;;;;1.55;0.50;;;;;;;14.84;64.58;98761.47;5055261;28;20032;-64
2023/03/31 13:08:01;;;;;;;1.45;0.35;;;;;;;15.61;60.53;98754.88;5054964;28;20478;-63
2023/03/31 13:10:30;;;;;;;0.22;0.20;;;;;;;16.21;58.72;98752.41;5054899;28;20045;-63
2023/03/31 13:13:05;;;;;;;0.55;0.20;;;;;;;16.91;55.73;98753.66;5055206;28;20371;-64
2023/03/31 13:15:31;;;;;;;0.70;0.30;;;;;;;16.95;56.78;98740.50;5055119;28;20444;-64
2023/03/31 13:17:59;;;;;;;2.42;0.30;;;;;;;17.02;55.73;98747.34;5054846;28;20090;-63
2023/03/31 13:20:31;;;;;;;0.52;0.40;;;;;;;17.13;56.05;98734.00;5054855;28;20044;-64
2023/03/31 13:23:01;;;;;;;0.50;0.30;;;;;;;16.71;55.51;98748.84;5055011;28;20044;-63
2023/03/31 13:25:29;;;;;;;0.43;0.38;;;;;;;17.05;54.80;98728.00;5054823;28;20437;-64
2023/03/31 13:28:08;;;;;;;0.40;0.40;;;;;;;16.37;55.96;98740.03;5054645;28;20055;-64
2023/03/31 13:30:40;;;;;;;0.70;0.45;;;;;;;16.74;56.90;98729.50;5054784;28;20097;-63
2023/03/31 13:33:24;;;;;;;1.08;0.25;;;;;;;16.68;56.22;98727.78;5054883;28;20036;-64
2023/03/31 13:36:24;;;;;;;0.93;0.40;;;;;;;16.53;56.74;98724.91;5054607;28;20068;-64
2023/03/31 13:39:27;;;;;;;2.83;0.75;;;;;;;16.41;56.77;98724.19;5034631;28;20102;-64
2023/03/31 13:42:11;;;;;;;0.40;0.20;;;;;;;15.94;55.77;98728.09;5054668;28;20591;-63
2023/03/31 13:44:50;;;;;;;0.47;0.25;;;;;;;15.17;57.51;98733.16;5054626;28;20029;-63
2023/03/31 13:47:56;;;;;;;1.80;0.90;;;;;;;15.38;58.43;98737.84;5054216;28;20036;-64
2023/03/31 13:51:23;;;;;;;0.63;0.50;;;;;;;15.14;58.17;98728.28;5054509;28;20037;-63
2023/03/31 13:54:22;;;;;;;1.10;0.30;;;;;;;15.08;57.78;98716.63;5015878;28;20502;-64
2023/03/31 13:56:50;;;;;;;2.08;0.30;;;;;;;15.06;57.72;98710.72;5054061;28;20095;-63
2023/03/31 13:59:54;;;;;;;0.15;0.15;;;;;;;15.00;57.62;98694.78;5054184;28;20037;-64
2023/03/31 14:02:45;;;;;;;0.55;0.30;;;;;;;15.01;58.03;98704.44;5021765;28;20048;-64
2023/03/31 14:05:17;;;;;;;1.17;0.38;;;;;;;14.71;59.02;98696.59;5026844;28;20049;-65
2023/03/31 14:07:45;;;;;;;1.42;0.40;;;;;;;14.51;59.42;98695.13;5053754;28;20028;-65
2023/03/31 14:10:34;;;;;;;0.38;0.28;;;;;;;14.16;60.38;98697.81;5054170;28;20044;-64
2023/03/31 14:13:08;;;;;;;0.52;0.32;;;;;;;14.21;61.44;98681.03;5054086;28;20122;-64
2023/03/31 14:15:45;;;;;;;0.73;0.30;;;;;;;13.99;62.30;98678.16;5053916;28;20048;-63
2023/03/31 14:18:17;;;;;;;0.25;0.20;;;;;;;13.94;64.90;98683.38;5053707;28;20040;-64
2023/03/31 14:20:56;;;;;;;0.20;0.20;;;;;;;13.81;68.20;98692.44;5053852;28;20037;-63
2023/03/31 14:23:26;;;;;;;0.20;0.20;;;;;;;13.45;73.29;98688.09;5053901;28;20037;-62
2023/03/31 14:26:09;;;;;;;1.00;0.30;;;;;;;13.21;75.22;98677.34;5053787;28;20040;-63
2023/03/31 14:28:53;;;;;;;1.25;0.38;;;;;;;12.77;82.60;98665.97;5053527;28;20033;-64
2023/03/31 14:31:33;;;;;;;1.05;0.47;;;;;;;12.56;83.70;98671.81;5053744;28;20076;-64
2023/03/31 14:34:16;;;;;;;0.63;0.47;;;;;;;12.49;84.94;98663.06;5053657;28;20495;-63
2023/03/31 14:36:51;;;;;;;0.95;0.10;;;;;;;12.26;82.77;98649.56;5053584;28;20482;-63
2023/03/31 14:39:21;;;;;;;0.55;0.25;;;;;;;12.40;84.50;98656.41;5053306;28;20029;-63
2023/03/31 14:41:57;;;;;;;0.95;0.40;;;;;;;12.48;83.19;98642.72;5053538;28;20033;-63
2023/03/31 14:44:24;;;;;;;0.38;0.20;;;;;;;12.72;84.44;98639.16;5053409;28;20037;-63
2023/03/31 14:46:50;;;;;;;0.38;0.30;;;;;;;12.81;83.22;98620.94;5053237;28;20106;-64
2023/03/31 14:49:36;;;;;;;1.52;0.55;;;;;;;12.93;79.71;98626.31;5053257;28;20432;-64
2023/03/31 14:52:13;;;;;;;0.70;0.30;;;;;;;13.02;77.69;98631.09;5053205;28;20060;-64
2023/03/31 14:54:40;;;;;;;0.50;0.30;;;;;;;13.10;77.87;98613.91;5053302;28;20029;-65
2023/03/31 14:57:06;;;;;;;0.70;0.60;;;;;;;13.24;77.36;98619.94;5052815;28;20048;-64
2023/03/31 14:59:34;;;;;;;2.10;0.43;;;;;;;13.16;75.65;98631.72;5053131;28;20036;-65
2023/03/31 15:02:02;;;;;;;0.63;0.50;;;;;;;13.23;76.40;98632.47;5053092;28;20037;-64
2023/03/31 15:04:29;;;;;;;;;;;;;;;13.14;76.21;98649.84;5053237;28;20124;-63
2023/03/31 15:06:57;;;;;;;1.38;0.45;;;;;;;12.96;75.27;98647.22;5052178;28;19947;-64
2023/03/31 15:09:28;;;;;;;0.20;0.20;;;;;;;13.04;79.02;98653.09;5052879;28;20127;-65
2023/03/31 15:12:04;;;;;;;1.67;0.60;;;;;;;12.57;87.37;98667.28;5052948;28;20041;-65
2023/03/31 15:14:39;;;;;;;2.60;0.47;;;;;;;12.08;92.00;98672.53;5053061;28;20032;-65
2023/03/31 15:17:04;;;;;;;2.63;0.50;;;;;;;11.74;95.91;98678.38;5052510;28;20099;-65
2023/03/31 15:19:34;;;;;;;0.60;0.38;;;;;;;11.56;100.00;98665.81;5052828;28;20028;-65
2023/03/31 15:22:20;;;;;;;0.95;0.38;;;;;;;11.48;100.00;98660.75;5052608;28;20048;-64
2023/03/31 15:24:46;;;;;;;3.28;0.63;;;;;;;11.54;100.00;98660.69;5052724;28;20109;-64
2023/03/31 15:27:17;;;;;;;1.75;1.00;;;;;;;11.71;100.00;98644.13;5052340;28;20548;-64
2023/03/31 15:29:48;;;;;;;2.03;0.40;;;;;;;11.84;100.00;98660.88;5052591;28;20037;-64
2023/03/31 15:32:26;;;;;;;1.55;0.75;;;;;;;11.91;99.16;98663.47;5052587;28;20375;-65
2023/03/31 15:34:53;;;;;;;0.38;0.38;;;;;;;12.08;93.03;98656.53;5052753;28;20457;-65
2023/03/31 15:37:31;;;;;;;0.25;0.25;;;;;;;12.19;94.50;98652.28;5052134;28;20059;-64
2023/03/31 15:39:59;;;;;;;3.40;0.30;;;;;;;12.28;92.24;98675.00;5052383;28;20037;-65
2023/03/31 15:42:26;;;;;;;0.73;0.45;;;;;;;12.44;88.39;98673.59;5052416;28;20041;-65
2023/03/31 15:45:10;;;;;;;1.90;0.43;;;;;;;12.58;83.20;98676.91;5052283;28;20398;-64
2023/03/31 15:47:37;;;;;;;0.95;0.40;;;;;;;12.60;82.69;98691.69;5052393;28;20435;-64
2023/03/31 15:50:12;;;;;;;0.40;0.38;;;;;;;12.54;79.57;98687.25;5072299;28;20394;-64
2023/03/31 15:52:45;;;;;;;0.10;0.10;;;;;;;12.54;80.27;98689.91;5072160;28;20472;-64
2023/03/31 15:55:29;;;;;;;1.85;0.47;;;;;;;12.47;79.76;98687.31;5072121;28;20041;-64
2023/03/31 15:57:57;;;;;;;0.30;0.30;;;;;;;12.50;80.45;98688.72;5071812;28;20401;-64
2023/03/31 16:00:51;;;;;;;0.28;0.22;;;;;;;12.42;80.17;98687.16;5072176;28;20028;-64
2023/03/31 16:03:27;;;;;;;0.47;0.47;;;;;;;12.35;79.76;98666.91;5072061;28;20033;-64
2023/03/31 16:05:59;;;;;;;0.50;0.50;;;;;;;12.31;79.04;98695.09;5072287;28;20399;-65
2023/03/31 16:08:36;;;;;;;0.25;0.25;;;;;;;12.27;77.73;98701.94;5071792;28;20039;-65
2023/03/31 16:11:06;;;;;;;;;;;;;;;12.17;78.58;98700.56;5072485;28;20040;-65
2023/03/31 16:13:31;;;;;;;3.60;0.40;;;;;;;12.15;75.14;98707.19;5072034;28;19908;-65
2023/03/31 16:15:58;;;;;;;1.20;0.30;;;;;;;12.16;74.18;98700.78;5071697;28;20044;-64
2023/03/31 16:18:27;;;;;;;0.90;0.50;;;;;;;12.12;74.50;98697.75;5071591;28;20501;-64
2023/03/31 16:20:55;;;;;;;0.47;0.47;;;;;;;12.09;74.52;98706.19;5071870;28;20393;-64